createdAt,value
2022-08-28T00:00:12.733Z,970.54
2022-08-28T00:01:12.717Z,970.52
2022-08-28T00:02:12.697Z,970.53
2022-08-28T00:03:12.794Z,970.53
2022-08-28T00:04:12.648Z,970.55
2022-08-28T00:05:12.629Z,970.51
2022-08-28T00:06:12.605Z,970.49
2022-08-28T00:07:12.583Z,970.58
2022-08-28T00:08:12.752Z,970.53
2022-08-28T00:09:12.540Z,970.53
2022-08-28T00:10:12.520Z,970.49
2022-08-28T00:11:12.493Z,970.50
2022-08-28T00:12:13.430Z,970.54
2022-08-28T00:13:12.453Z,970.54
2022-08-28T00:14:12.433Z,970.51
2022-08-28T00:15:12.942Z,970.52
2022-08-28T00:16:12.455Z,970.56
2022-08-28T00:17:12.367Z,970.60
2022-08-28T00:18:12.480Z,970.57
2022-08-28T00:19:12.320Z,970.63
2022-08-28T00:20:12.306Z,970.63
2022-08-28T00:21:12.280Z,970.56
2022-08-28T00:22:12.257Z,970.67
2022-08-28T00:23:12.240Z,970.62
2022-08-28T00:24:12.210Z,970.68
2022-08-28T00:25:12.188Z,970.64
2022-08-28T00:26:12.171Z,970.68
2022-08-28T00:27:12.146Z,970.70
2022-08-28T00:28:20.987Z,970.70
2022-08-28T00:29:13.106Z,970.68
2022-08-28T00:30:12.083Z,970.68
2022-08-28T00:31:12.108Z,970.69
2022-08-28T00:32:12.044Z,970.73
2022-08-28T00:33:12.025Z,970.67
2022-08-28T00:34:11.999Z,970.70
2022-08-28T00:35:11.973Z,970.68
2022-08-28T00:36:11.954Z,970.70
2022-08-28T00:37:11.929Z,970.71
2022-08-28T00:38:12.031Z,970.80
2022-08-28T00:39:11.887Z,970.77
2022-08-28T00:40:11.906Z,970.78
2022-08-28T00:41:11.841Z,970.77
2022-08-28T00:42:11.819Z,970.77
2022-08-28T00:43:11.794Z,970.84
2022-08-28T00:44:11.775Z,970.73
2022-08-28T00:45:11.752Z,970.70
2022-08-28T00:46:11.774Z,970.77
2022-08-28T00:47:11.711Z,970.72
2022-08-28T00:48:11.786Z,970.74
2022-08-28T00:49:11.662Z,970.69
2022-08-28T00:50:11.644Z,970.74
2022-08-28T00:51:11.605Z,970.70
2022-08-28T00:52:12.694Z,970.72
2022-08-28T00:53:11.571Z,970.69
2022-08-28T00:54:11.545Z,970.74
2022-08-28T00:55:11.533Z,970.75
2022-08-28T00:56:13.125Z,970.68
2022-08-28T00:57:11.487Z,970.74
2022-08-28T00:58:11.635Z,970.73
2022-08-28T00:59:11.447Z,970.74
2022-08-28T01:00:11.422Z,970.69
2022-08-28T01:01:11.399Z,970.74
2022-08-28T01:02:11.381Z,970.72
2022-08-28T01:03:11.391Z,970.76
2022-08-28T01:04:11.334Z,970.70
2022-08-28T01:05:11.308Z,970.73
2022-08-28T01:06:11.289Z,970.79
2022-08-28T01:07:11.269Z,970.74
2022-08-28T01:08:11.404Z,970.73
2022-08-28T01:09:11.221Z,970.76
2022-08-28T01:10:11.199Z,970.88
2022-08-28T01:11:11.176Z,970.79
2022-08-28T01:12:11.154Z,970.79
2022-08-28T01:13:11.131Z,970.78
2022-08-28T01:14:11.114Z,970.87
2022-08-28T01:15:11.092Z,970.88
2022-08-28T01:16:11.149Z,970.85
2022-08-28T01:17:11.050Z,970.85
2022-08-28T01:18:11.190Z,970.84
2022-08-28T01:19:11.005Z,970.86
2022-08-28T01:20:10.986Z,970.90
2022-08-28T01:21:10.963Z,970.89
2022-08-28T01:22:11.946Z,970.89
2022-08-28T01:23:10.942Z,970.88
2022-08-28T01:24:10.908Z,970.97
2022-08-28T01:25:10.875Z,970.94
2022-08-28T01:26:11.816Z,970.88
2022-08-28T01:27:10.831Z,970.91
2022-08-28T01:28:10.887Z,970.94
2022-08-28T01:29:10.788Z,970.89
2022-08-28T01:30:10.768Z,970.87
2022-08-28T01:31:10.782Z,970.88
2022-08-28T01:32:10.725Z,970.87
2022-08-28T01:33:10.700Z,970.89
2022-08-28T01:34:10.676Z,970.88
2022-08-28T01:35:10.657Z,970.91
2022-08-28T01:36:10.637Z,970.93
2022-08-28T01:37:10.618Z,970.95
2022-08-28T01:38:10.672Z,970.92
2022-08-28T01:39:10.577Z,970.93
2022-08-28T01:40:10.589Z,970.94
2022-08-28T01:41:10.531Z,970.97
2022-08-28T01:42:10.511Z,970.98
2022-08-28T01:43:10.484Z,970.96
2022-08-28T01:44:10.471Z,970.98
2022-08-28T01:45:10.453Z,970.97
2022-08-28T01:46:10.474Z,970.93
2022-08-28T01:47:10.407Z,971.01
2022-08-28T01:48:10.399Z,970.97
2022-08-28T01:49:10.363Z,970.96
2022-08-28T01:50:10.338Z,970.98
2022-08-28T01:51:10.324Z,970.98
2022-08-28T01:52:10.296Z,971.03
2022-08-28T01:53:12.462Z,970.95
2022-08-28T01:54:10.260Z,971.07
2022-08-28T01:55:10.231Z,971.05
2022-08-28T01:56:10.204Z,971.05
2022-08-28T01:57:10.190Z,971.09
2022-08-28T01:58:10.279Z,971.11
2022-08-28T01:59:10.137Z,971.11
2022-08-28T02:00:10.114Z,971.15
2022-08-28T02:01:10.161Z,971.07
2022-08-28T02:02:10.126Z,971.11
2022-08-28T02:03:10.050Z,971.12
2022-08-28T02:04:10.113Z,971.10
2022-08-28T02:05:10.005Z,971.14
2022-08-28T02:06:09.978Z,971.13
2022-08-28T02:07:09.957Z,971.07
2022-08-28T02:08:10.048Z,971.08
2022-08-28T02:09:13.530Z,971.10
2022-08-28T02:10:09.890Z,971.15
2022-08-28T02:11:09.872Z,971.07
2022-08-28T02:12:09.849Z,971.06
2022-08-28T02:13:09.844Z,971.05
2022-08-28T02:14:09.802Z,971.05
2022-08-28T02:15:09.784Z,971.07
2022-08-28T02:16:09.886Z,971.05
2022-08-28T02:17:09.738Z,971.04
2022-08-28T02:18:09.833Z,971.02
2022-08-28T02:19:09.692Z,971.05
2022-08-28T02:20:09.670Z,971.01
2022-08-28T02:21:09.649Z,971.09
2022-08-28T02:22:09.625Z,971.10
2022-08-28T02:23:09.603Z,971.08
2022-08-28T02:24:09.578Z,971.13
2022-08-28T02:25:09.555Z,971.08
2022-08-28T02:26:09.544Z,971.11
2022-08-28T02:27:09.511Z,971.03
2022-08-28T02:28:09.562Z,971.15
2022-08-28T02:29:09.466Z,971.17
2022-08-28T02:30:09.443Z,971.19
2022-08-28T02:31:09.525Z,971.17
2022-08-28T02:32:09.402Z,971.14
2022-08-28T02:33:09.386Z,971.16
2022-08-28T02:34:09.360Z,971.14
2022-08-28T02:35:10.099Z,971.14
2022-08-28T02:36:09.313Z,971.16
2022-08-28T02:37:09.287Z,971.15
2022-08-28T02:38:10.267Z,971.20
2022-08-28T02:39:09.245Z,971.19
2022-08-28T02:40:09.246Z,971.20
2022-08-28T02:41:09.200Z,971.12
2022-08-28T02:42:09.179Z,971.13
2022-08-28T02:43:09.157Z,971.15
2022-08-28T02:44:09.130Z,971.11
2022-08-28T02:45:09.110Z,971.17
2022-08-28T02:46:09.132Z,971.19
2022-08-28T02:47:09.067Z,971.22
2022-08-28T02:48:14.670Z,971.21
2022-08-28T02:49:10.017Z,971.20
2022-08-28T02:50:08.996Z,971.17
2022-08-28T02:51:08.972Z,971.20
2022-08-28T02:52:08.952Z,971.23
2022-08-28T02:53:08.928Z,971.21
2022-08-28T02:54:08.905Z,971.20
2022-08-28T02:55:08.886Z,971.22
2022-08-28T02:56:08.861Z,971.20
2022-08-28T02:57:08.835Z,971.18
2022-08-28T02:58:08.860Z,971.27
2022-08-28T02:59:08.794Z,971.24
2022-08-28T03:00:08.772Z,971.23
2022-08-28T03:01:08.792Z,971.27
2022-08-28T03:02:08.813Z,971.20
2022-08-28T03:03:08.704Z,971.24
2022-08-28T03:04:08.695Z,971.24
2022-08-28T03:05:08.663Z,971.25
2022-08-28T03:06:08.641Z,971.20
2022-08-28T03:07:08.621Z,971.19
2022-08-28T03:08:08.599Z,971.24
2022-08-28T03:09:08.574Z,971.24
2022-08-28T03:10:08.553Z,971.23
2022-08-28T03:11:08.529Z,971.22
2022-08-28T03:12:08.506Z,971.23
2022-08-28T03:13:08.484Z,971.24
2022-08-28T03:14:08.462Z,971.19
2022-08-28T03:15:08.439Z,971.25
2022-08-28T03:16:08.416Z,971.27
2022-08-28T03:17:08.392Z,971.22
2022-08-28T03:18:11.341Z,971.25
2022-08-28T03:19:08.345Z,971.28
2022-08-28T03:20:08.331Z,971.26
2022-08-28T03:21:08.299Z,971.24
2022-08-28T03:22:08.281Z,971.27
2022-08-28T03:23:08.257Z,971.27
2022-08-28T03:24:08.234Z,971.25
2022-08-28T03:25:08.214Z,971.30
2022-08-28T03:26:08.189Z,971.28
2022-08-28T03:27:08.167Z,971.31
2022-08-28T03:28:08.145Z,971.31
2022-08-28T03:29:08.126Z,971.27
2022-08-28T03:30:08.105Z,971.28
2022-08-28T03:31:08.160Z,971.25
2022-08-28T03:32:08.051Z,971.27
2022-08-28T03:33:08.033Z,971.34
2022-08-28T03:34:08.025Z,971.30
2022-08-28T03:35:07.987Z,971.28
2022-08-28T03:36:07.960Z,971.30
2022-08-28T03:37:07.944Z,971.35
2022-08-28T03:38:07.919Z,971.29
2022-08-28T03:39:07.899Z,971.32
2022-08-28T03:40:07.926Z,971.30
2022-08-28T03:41:07.855Z,971.30
2022-08-28T03:42:07.832Z,971.33
2022-08-28T03:43:07.806Z,971.29
2022-08-28T03:44:07.782Z,971.27
2022-08-28T03:45:07.763Z,971.27
2022-08-28T03:46:07.786Z,971.26
2022-08-28T03:47:07.721Z,971.32
2022-08-28T03:48:07.695Z,971.31
2022-08-28T03:49:07.673Z,971.24
2022-08-28T03:50:07.651Z,971.22
2022-08-28T03:51:07.625Z,971.35
2022-08-28T03:52:07.607Z,971.41
2022-08-28T03:53:07.581Z,971.39
2022-08-28T03:54:07.560Z,971.33
2022-08-28T03:55:07.536Z,971.24
2022-08-28T03:56:07.515Z,971.35
2022-08-28T03:57:07.491Z,971.37
2022-08-28T03:58:07.470Z,971.35
2022-08-28T03:59:07.446Z,971.33
2022-08-28T04:00:07.428Z,971.36
2022-08-28T04:01:07.456Z,971.35
2022-08-28T04:02:07.389Z,971.35
2022-08-28T04:03:07.417Z,971.31
2022-08-28T04:04:07.344Z,971.32
2022-08-28T04:05:07.319Z,971.37
2022-08-28T04:06:07.305Z,971.41
2022-08-28T04:07:07.281Z,971.39
2022-08-28T04:08:07.268Z,971.37
2022-08-28T04:09:07.247Z,971.38
2022-08-28T04:10:07.217Z,971.41
2022-08-28T04:11:07.195Z,971.41
2022-08-28T04:12:07.170Z,971.40
2022-08-28T04:13:07.151Z,971.40
2022-08-28T04:14:07.131Z,971.42
2022-08-28T04:15:07.379Z,971.45
2022-08-28T04:16:08.096Z,971.45
2022-08-28T04:17:07.137Z,971.48
2022-08-28T04:18:07.043Z,971.47
2022-08-28T04:19:07.021Z,971.42
2022-08-28T04:20:06.996Z,971.45
2022-08-28T04:21:06.974Z,971.44
2022-08-28T04:22:06.950Z,971.47
2022-08-28T04:23:06.930Z,971.44
2022-08-28T04:24:09.615Z,971.48
2022-08-28T04:25:07.882Z,971.47
2022-08-28T04:26:06.887Z,971.50
2022-08-28T04:27:06.842Z,971.53
2022-08-28T04:28:06.837Z,971.57
2022-08-28T04:29:06.788Z,971.51
2022-08-28T04:30:07.778Z,971.52
2022-08-28T04:31:06.751Z,971.51
2022-08-28T04:32:06.742Z,971.49
2022-08-28T04:33:06.710Z,971.54
2022-08-28T04:34:06.688Z,971.47
2022-08-28T04:35:06.666Z,971.56
2022-08-28T04:36:06.647Z,971.51
2022-08-28T04:37:06.638Z,971.48
2022-08-28T04:38:06.634Z,971.50
2022-08-28T04:39:06.577Z,971.48
2022-08-28T04:40:06.599Z,971.50
2022-08-28T04:41:06.532Z,971.56
2022-08-28T04:42:06.521Z,971.50
2022-08-28T04:43:06.493Z,971.55
2022-08-28T04:44:06.470Z,971.52
2022-08-28T04:45:06.468Z,971.51
2022-08-28T04:46:06.506Z,971.53
2022-08-28T04:47:06.397Z,971.50
2022-08-28T04:48:13.013Z,971.56
2022-08-28T04:49:07.365Z,971.51
2022-08-28T04:50:06.350Z,971.54
2022-08-28T04:51:06.325Z,971.51
2022-08-28T04:52:06.302Z,971.53
2022-08-28T04:53:06.287Z,971.57
2022-08-28T04:54:06.261Z,971.57
2022-08-28T04:55:06.239Z,971.63
2022-08-28T04:56:06.215Z,971.63
2022-08-28T04:57:06.622Z,971.63
2022-08-28T04:58:06.259Z,971.64
2022-08-28T04:59:06.156Z,971.64
2022-08-28T05:00:06.129Z,971.64
2022-08-28T05:01:06.162Z,971.61
2022-08-28T05:02:06.111Z,971.67
2022-08-28T05:03:06.065Z,971.63
2022-08-28T05:04:06.047Z,971.64
2022-08-28T05:05:06.027Z,971.61
2022-08-28T05:06:06.006Z,971.61
2022-08-28T05:07:05.985Z,971.70
2022-08-28T05:08:05.962Z,971.64
2022-08-28T05:09:05.948Z,971.69
2022-08-28T05:10:05.923Z,971.66
2022-08-28T05:11:05.901Z,971.67
2022-08-28T05:12:05.879Z,971.69
2022-08-28T05:13:05.857Z,971.69
2022-08-28T05:14:05.837Z,971.69
2022-08-28T05:15:05.815Z,971.70
2022-08-28T05:16:05.841Z,971.75
2022-08-28T05:17:05.776Z,971.75
2022-08-28T05:18:05.821Z,971.71
2022-08-28T05:19:05.737Z,971.75
2022-08-28T05:20:05.712Z,971.77
2022-08-28T05:21:05.687Z,971.83
2022-08-28T05:22:05.665Z,971.82
2022-08-28T05:23:05.642Z,971.81
2022-08-28T05:24:05.621Z,971.80
2022-08-28T05:25:05.604Z,971.81
2022-08-28T05:26:05.582Z,971.86
2022-08-28T05:27:05.570Z,971.83
2022-08-28T05:28:05.539Z,971.88
2022-08-28T05:29:05.522Z,971.83
2022-08-28T05:30:05.496Z,971.84
2022-08-28T05:31:05.474Z,971.76
2022-08-28T05:32:05.455Z,971.74
2022-08-28T05:33:05.432Z,971.79
2022-08-28T05:34:05.411Z,971.78
2022-08-28T05:35:05.386Z,971.78
2022-08-28T05:36:05.368Z,971.79
2022-08-28T05:37:05.344Z,971.76
2022-08-28T05:38:05.439Z,971.76
2022-08-28T05:39:05.306Z,971.74
2022-08-28T05:40:05.331Z,971.73
2022-08-28T05:41:05.261Z,971.80
2022-08-28T05:42:05.242Z,971.78
2022-08-28T05:43:05.222Z,971.81
2022-08-28T05:44:05.205Z,971.76
2022-08-28T05:45:05.181Z,971.80
2022-08-28T05:46:05.889Z,971.78
2022-08-28T05:47:05.137Z,971.75
2022-08-28T05:48:05.118Z,971.78
2022-08-28T05:49:09.602Z,971.78
2022-08-28T05:50:07.071Z,971.78
2022-08-28T05:51:05.054Z,971.86
2022-08-28T05:52:05.032Z,971.82
2022-08-28T05:53:05.009Z,971.86
2022-08-28T05:54:04.984Z,971.79
2022-08-28T05:55:04.962Z,971.75
2022-08-28T05:56:04.942Z,971.82
2022-08-28T05:57:04.923Z,971.76
2022-08-28T05:58:04.898Z,971.78
2022-08-28T05:59:04.876Z,971.82
2022-08-28T06:00:04.857Z,971.80
2022-08-28T06:01:04.833Z,971.81
2022-08-28T06:02:04.877Z,971.77
2022-08-28T06:03:04.789Z,971.80
2022-08-28T06:04:04.828Z,971.79
2022-08-28T06:05:04.740Z,971.82
2022-08-28T06:06:04.718Z,971.82
2022-08-28T06:07:04.695Z,971.83
2022-08-28T06:08:04.675Z,971.75
2022-08-28T06:09:04.649Z,971.76
2022-08-28T06:10:04.631Z,971.75
2022-08-28T06:11:04.609Z,971.73
2022-08-28T06:12:04.584Z,971.69
2022-08-28T06:13:04.565Z,971.77
2022-08-28T06:14:04.544Z,971.71
2022-08-28T06:15:04.520Z,971.74
2022-08-28T06:16:04.537Z,971.77
2022-08-28T06:17:04.477Z,971.82
2022-08-28T06:18:04.455Z,971.74
2022-08-28T06:19:04.434Z,971.74
2022-08-28T06:20:04.412Z,971.78
2022-08-28T06:21:04.395Z,971.80
2022-08-28T06:22:06.974Z,971.75
2022-08-28T06:23:04.353Z,971.89
2022-08-28T06:24:04.332Z,971.85
2022-08-28T06:25:07.789Z,971.81
2022-08-28T06:26:05.287Z,971.78
2022-08-28T06:27:04.268Z,971.73
2022-08-28T06:28:04.251Z,971.72
2022-08-28T06:29:04.229Z,971.74
2022-08-28T06:30:04.209Z,971.79
2022-08-28T06:31:24.044Z,971.82
2022-08-28T06:32:06.215Z,971.81
2022-08-28T06:33:04.155Z,971.67
2022-08-28T06:34:04.136Z,971.64
2022-08-28T06:35:04.117Z,971.81
2022-08-28T06:36:04.101Z,971.76
2022-08-28T06:37:04.076Z,971.84
2022-08-28T06:38:04.065Z,971.77
2022-08-28T06:39:04.042Z,971.77
2022-08-28T06:40:04.053Z,971.69
2022-08-28T06:41:04.002Z,971.75
2022-08-28T06:42:03.990Z,971.73
2022-08-28T06:43:03.967Z,971.75
2022-08-28T06:44:03.946Z,971.76
2022-08-28T06:45:03.933Z,971.79
2022-08-28T06:46:03.957Z,971.81
2022-08-28T06:47:03.893Z,971.79
2022-08-28T06:48:03.887Z,971.77
2022-08-28T06:49:03.889Z,971.77
2022-08-28T06:50:03.841Z,971.80
2022-08-28T06:51:03.833Z,971.79
2022-08-28T06:52:03.810Z,971.76
2022-08-28T06:53:03.790Z,971.75
2022-08-28T06:54:03.777Z,971.69
2022-08-28T06:55:03.752Z,971.72
2022-08-28T06:56:03.735Z,971.73
2022-08-28T06:57:03.714Z,971.72
2022-08-28T06:58:03.714Z,971.81
2022-08-28T06:59:03.676Z,971.79
2022-08-28T07:00:03.660Z,971.56
2022-08-28T07:01:03.783Z,971.76
2022-08-28T07:02:03.800Z,971.75
2022-08-28T07:03:03.655Z,971.82
2022-08-28T07:04:03.601Z,971.82
2022-08-28T07:05:03.608Z,971.79
2022-08-28T07:06:03.550Z,971.76
2022-08-28T07:07:03.567Z,971.78
2022-08-28T07:08:03.517Z,971.80
2022-08-28T07:09:04.363Z,971.77
2022-08-28T07:10:03.484Z,971.76
2022-08-28T07:11:03.466Z,971.78
2022-08-28T07:12:03.471Z,971.70
2022-08-28T07:13:03.435Z,971.70
2022-08-28T07:14:03.418Z,971.75
2022-08-28T07:15:03.393Z,971.72
2022-08-28T07:16:03.398Z,971.71
2022-08-28T07:17:03.369Z,971.70
2022-08-28T07:18:03.346Z,971.69
2022-08-28T07:19:03.333Z,971.95
2022-08-28T07:20:03.308Z,971.83
2022-08-28T07:21:04.314Z,971.79
2022-08-28T07:22:03.277Z,971.85
2022-08-28T07:23:03.257Z,971.75
2022-08-28T07:24:03.241Z,971.81
2022-08-28T07:25:03.221Z,971.77
2022-08-28T07:26:03.209Z,971.72
2022-08-28T07:27:03.194Z,971.79
2022-08-28T07:28:03.181Z,971.79
2022-08-28T07:29:10.205Z,971.81
2022-08-28T07:30:04.208Z,971.87
2022-08-28T07:31:03.175Z,971.75
2022-08-28T07:32:03.100Z,971.77
2022-08-28T07:33:03.081Z,971.81
2022-08-28T07:34:03.064Z,971.86
2022-08-28T07:35:03.047Z,971.79
2022-08-28T07:36:03.036Z,971.82
2022-08-28T07:37:03.013Z,971.81
2022-08-28T07:38:02.996Z,971.91
2022-08-28T07:39:02.975Z,971.81
2022-08-28T07:40:03.005Z,971.88
2022-08-28T07:41:02.940Z,971.88
2022-08-28T07:42:02.922Z,971.89
2022-08-28T07:43:02.905Z,971.97
2022-08-28T07:44:02.884Z,971.97
2022-08-28T07:45:02.869Z,972.02
2022-08-28T07:46:02.895Z,971.85
2022-08-28T07:47:02.828Z,971.88
2022-08-28T07:48:02.812Z,971.90
2022-08-28T07:49:02.788Z,971.91
2022-08-28T07:50:02.773Z,971.96
2022-08-28T07:51:02.762Z,971.97
2022-08-28T07:52:02.746Z,971.95
2022-08-28T07:53:02.723Z,971.99
2022-08-28T07:54:02.702Z,971.90
2022-08-28T07:55:02.680Z,971.99
2022-08-28T07:56:02.665Z,972.00
2022-08-28T07:57:02.643Z,972.05
2022-08-28T07:58:02.629Z,972.05
2022-08-28T07:59:02.614Z,972.07
2022-08-28T08:00:02.589Z,972.03
2022-08-28T08:01:02.631Z,972.21
2022-08-28T08:02:02.554Z,972.15
2022-08-28T08:03:02.543Z,972.07
2022-08-28T08:04:02.552Z,972.04
2022-08-28T08:05:02.499Z,972.01
2022-08-28T08:06:02.477Z,972.16
2022-08-28T08:07:02.470Z,972.14
2022-08-28T08:08:02.448Z,972.09
2022-08-28T08:09:02.427Z,972.14
2022-08-28T08:10:02.410Z,972.07
2022-08-28T08:11:02.391Z,972.08
2022-08-28T08:12:02.370Z,972.03
2022-08-28T08:13:02.351Z,972.11
2022-08-28T08:14:03.348Z,972.02
2022-08-28T08:15:02.319Z,972.12
2022-08-28T08:16:02.341Z,972.22
2022-08-28T08:17:02.284Z,972.23
2022-08-28T08:18:02.261Z,972.10
2022-08-28T08:19:02.250Z,972.21
2022-08-28T08:20:02.225Z,972.20
2022-08-28T08:21:02.208Z,972.24
2022-08-28T08:22:02.186Z,972.35
2022-08-28T08:23:02.173Z,972.22
2022-08-28T08:24:02.149Z,972.21
2022-08-28T08:25:03.133Z,972.12
2022-08-28T08:26:02.116Z,972.16
2022-08-28T08:27:02.101Z,972.27
2022-08-28T08:28:02.084Z,972.06
2022-08-28T08:29:02.067Z,972.27
2022-08-28T08:30:02.049Z,972.19
2022-08-28T08:31:02.053Z,972.20
2022-08-28T08:32:02.006Z,972.12
2022-08-28T08:33:01.995Z,972.11
2022-08-28T08:34:02.740Z,972.17
2022-08-28T08:35:01.959Z,972.12
2022-08-28T08:36:01.941Z,972.12
2022-08-28T08:37:01.916Z,972.14
2022-08-28T08:38:02.952Z,972.31
2022-08-28T08:39:06.449Z,972.18
2022-08-28T08:40:03.535Z,972.10
2022-08-28T08:41:01.851Z,972.14
2022-08-28T08:42:01.832Z,972.17
2022-08-28T08:43:01.814Z,972.23
2022-08-28T08:44:01.797Z,972.10
2022-08-28T08:45:01.778Z,972.19
2022-08-28T08:46:01.825Z,972.17
2022-08-28T08:47:02.746Z,972.24
2022-08-28T08:48:02.723Z,972.29
2022-08-28T08:49:01.715Z,972.30
2022-08-28T08:50:01.689Z,972.26
2022-08-28T08:51:01.671Z,972.24
2022-08-28T08:52:01.646Z,972.20
2022-08-28T08:53:01.635Z,972.25
2022-08-28T08:54:01.615Z,972.28
2022-08-28T08:55:01.597Z,972.25
2022-08-28T08:56:01.579Z,972.24
2022-08-28T08:57:01.563Z,972.25
2022-08-28T08:58:01.559Z,972.22
2022-08-28T08:59:01.524Z,972.26
2022-08-28T09:00:01.509Z,972.23
2022-08-28T09:01:01.526Z,972.21
2022-08-28T09:02:01.468Z,972.33
2022-08-28T09:03:02.501Z,972.24
2022-08-28T09:04:01.432Z,972.31
2022-08-28T09:05:02.200Z,972.30
2022-08-28T09:06:01.410Z,972.19
2022-08-28T09:07:02.237Z,972.24
2022-08-28T09:08:01.374Z,972.30
2022-08-28T09:09:01.341Z,972.25
2022-08-28T09:10:01.336Z,972.24
2022-08-28T09:11:01.308Z,972.27
2022-08-28T09:12:01.812Z,972.12
2022-08-28T09:13:01.267Z,972.23
2022-08-28T09:14:01.250Z,972.20
2022-08-28T09:15:01.737Z,972.15
2022-08-28T09:16:01.264Z,972.13
2022-08-28T09:17:01.195Z,972.22
2022-08-28T09:18:02.177Z,972.08
2022-08-28T09:19:01.163Z,972.13
2022-08-28T09:20:01.145Z,972.24
2022-08-28T09:21:01.129Z,972.16
2022-08-28T09:22:01.112Z,972.21
2022-08-28T09:23:02.077Z,972.22
2022-08-28T09:24:02.074Z,972.20
2022-08-28T09:25:02.064Z,972.18
2022-08-28T09:26:01.750Z,972.09
2022-08-28T09:27:01.026Z,972.18
2022-08-28T09:28:01.005Z,972.10
2022-08-28T09:29:00.981Z,972.21
2022-08-28T09:30:07.216Z,972.13
2022-08-28T09:31:02.009Z,972.23
2022-08-28T09:32:00.925Z,972.17
2022-08-28T09:33:00.918Z,972.20
2022-08-28T09:34:00.891Z,972.13
2022-08-28T09:35:00.875Z,972.26
2022-08-28T09:36:00.862Z,972.17
2022-08-28T09:37:01.346Z,972.23
2022-08-28T09:38:00.821Z,972.17
2022-08-28T09:39:00.807Z,972.25
2022-08-28T09:40:00.852Z,972.29
2022-08-28T09:41:00.766Z,972.26
2022-08-28T09:42:00.746Z,972.23
2022-08-28T09:43:00.730Z,972.23
2022-08-28T09:44:00.711Z,972.18
2022-08-28T09:45:00.688Z,972.27
2022-08-28T09:46:00.711Z,972.16
2022-08-28T09:47:00.655Z,972.24
2022-08-28T09:48:01.236Z,972.25
2022-08-28T09:49:00.616Z,972.29
2022-08-28T09:50:00.609Z,972.25
2022-08-28T09:51:00.581Z,972.30
2022-08-28T09:52:00.569Z,972.31
2022-08-28T09:53:00.551Z,972.36
2022-08-28T09:54:00.529Z,972.28
2022-08-28T09:55:00.510Z,972.40
2022-08-28T09:56:00.558Z,972.37
2022-08-28T09:57:01.344Z,972.41
2022-08-28T09:58:00.459Z,972.43
2022-08-28T09:59:01.231Z,972.42
2022-08-28T10:00:00.424Z,972.40
2022-08-28T10:01:00.416Z,972.41
2022-08-28T10:02:00.480Z,972.39
2022-08-28T10:03:03.281Z,972.36
2022-08-28T10:04:01.403Z,972.39
2022-08-28T10:05:00.336Z,972.36
2022-08-28T10:06:00.321Z,972.38
2022-08-28T10:07:00.303Z,972.34
2022-08-28T10:08:00.282Z,972.31
2022-08-28T10:09:00.261Z,972.37
2022-08-28T10:10:00.248Z,972.36
2022-08-28T10:11:00.236Z,972.36
2022-08-28T10:12:00.206Z,972.37
2022-08-28T10:13:00.187Z,972.37
2022-08-28T10:14:00.171Z,972.44
2022-08-28T10:15:00.149Z,972.41
2022-08-28T10:16:00.177Z,972.32
2022-08-28T10:17:01.118Z,972.35
2022-08-28T10:18:00.111Z,972.32
2022-08-28T10:19:00.086Z,972.30
2022-08-28T10:20:00.067Z,972.39
2022-08-28T10:21:00.050Z,972.39
2022-08-28T10:22:00.031Z,972.36
2022-08-28T10:23:00.007Z,972.33
2022-08-28T10:23:59.987Z,972.26
2022-08-28T10:24:59.971Z,972.31
2022-08-28T10:25:59.957Z,972.37
2022-08-28T10:26:59.943Z,972.33
2022-08-28T10:27:59.917Z,972.33
2022-08-28T10:28:59.908Z,972.31
2022-08-28T10:30:04.377Z,972.23
2022-08-28T10:31:01.932Z,972.28
2022-08-28T10:31:59.851Z,972.43
2022-08-28T10:32:59.870Z,972.37
2022-08-28T10:33:59.814Z,972.44
2022-08-28T10:34:59.797Z,972.39
2022-08-28T10:35:59.788Z,972.33
2022-08-28T10:37:00.764Z,972.42
2022-08-28T10:37:59.748Z,972.44
2022-08-28T10:38:59.727Z,972.43
2022-08-28T10:39:59.754Z,972.36
2022-08-28T10:41:00.341Z,972.34
2022-08-28T10:41:59.680Z,972.37
2022-08-28T10:42:59.657Z,972.42
2022-08-28T10:43:59.640Z,972.33
2022-08-28T10:44:59.653Z,972.31
2022-08-28T10:46:00.640Z,972.32
2022-08-28T10:46:59.586Z,972.30
2022-08-28T10:47:59.569Z,972.43
2022-08-28T10:48:59.554Z,972.44
2022-08-28T10:49:59.537Z,972.41
2022-08-28T10:50:59.516Z,972.39
2022-08-28T10:52:00.347Z,972.38
2022-08-28T10:52:59.486Z,972.35
2022-08-28T10:54:00.338Z,972.39
2022-08-28T10:54:59.441Z,972.40
2022-08-28T10:55:59.413Z,972.42
2022-08-28T10:56:59.405Z,972.34
2022-08-28T10:57:59.384Z,972.39
2022-08-28T10:58:59.369Z,972.37
2022-08-28T10:59:59.362Z,972.38
2022-08-28T11:00:59.390Z,972.37
2022-08-28T11:01:59.312Z,972.31
2022-08-28T11:02:59.341Z,972.41
2022-08-28T11:04:00.270Z,972.41
2022-08-28T11:04:59.257Z,972.40
2022-08-28T11:05:59.237Z,972.38
2022-08-28T11:06:59.215Z,972.37
2022-08-28T11:07:59.215Z,972.36
2022-08-28T11:08:59.179Z,972.36
2022-08-28T11:09:59.175Z,972.35
2022-08-28T11:10:59.140Z,972.41
2022-08-28T11:12:01.987Z,972.39
2022-08-28T11:12:59.104Z,972.37
2022-08-28T11:13:59.092Z,972.40
2022-08-28T11:14:59.068Z,972.39
2022-08-28T11:15:59.050Z,972.39
2022-08-28T11:16:59.108Z,972.33
2022-08-28T11:17:59.012Z,972.41
2022-08-28T11:18:59.001Z,972.40
2022-08-28T11:19:58.978Z,972.37
2022-08-28T11:20:58.958Z,972.34
2022-08-28T11:21:58.942Z,972.35
2022-08-28T11:22:58.929Z,972.33
2022-08-28T11:23:58.913Z,972.34
2022-08-28T11:25:03.310Z,972.43
2022-08-28T11:25:59.872Z,972.43
2022-08-28T11:26:58.849Z,972.39
2022-08-28T11:27:58.832Z,972.42
2022-08-28T11:28:58.814Z,972.43
2022-08-28T11:29:59.726Z,972.43
2022-08-28T11:30:59.791Z,972.45
2022-08-28T11:31:58.760Z,972.44
2022-08-28T11:32:58.844Z,972.36
2022-08-28T11:33:58.724Z,972.37
2022-08-28T11:34:58.708Z,972.37
2022-08-28T11:35:58.688Z,972.39
2022-08-28T11:36:58.667Z,972.39
2022-08-28T11:37:58.655Z,972.38
2022-08-28T11:38:58.634Z,972.43
2022-08-28T11:39:58.666Z,972.44
2022-08-28T11:40:58.598Z,972.44
2022-08-28T11:41:58.581Z,972.45
2022-08-28T11:42:58.561Z,972.47
2022-08-28T11:43:58.547Z,972.45
2022-08-28T11:44:58.525Z,972.47
2022-08-28T11:45:58.575Z,972.39
2022-08-28T11:46:58.489Z,972.43
2022-08-28T11:47:58.472Z,972.47
2022-08-28T11:48:58.452Z,972.40
2022-08-28T11:49:58.434Z,972.45
2022-08-28T11:50:58.418Z,972.48
2022-08-28T11:51:58.396Z,972.48
2022-08-28T11:52:58.378Z,972.44
2022-08-28T11:53:58.358Z,972.44
2022-08-28T11:54:58.340Z,972.40
2022-08-28T11:55:58.320Z,972.39
2022-08-28T11:56:58.302Z,972.41
2022-08-28T11:58:45.195Z,972.46
2022-08-28T11:59:46.333Z,972.51
2022-08-28T12:00:46.312Z,972.49
2022-08-28T12:01:46.292Z,972.42
2022-08-28T12:02:46.339Z,972.45
2022-08-28T12:03:46.254Z,972.51
2022-08-28T12:04:46.288Z,972.44
2022-08-28T12:05:46.215Z,972.42
2022-08-28T12:06:46.193Z,972.45
2022-08-28T12:07:46.176Z,972.38
2022-08-28T12:08:46.157Z,972.39
2022-08-28T12:09:46.133Z,972.39
2022-08-28T12:10:46.115Z,972.47
2022-08-28T12:11:46.095Z,972.54
2022-08-28T12:12:46.153Z,972.50
2022-08-28T12:13:46.058Z,972.47
2022-08-28T12:14:46.040Z,972.47
2022-08-28T12:15:46.074Z,972.47
2022-08-28T12:16:45.999Z,972.41
2022-08-28T12:17:45.980Z,972.37
2022-08-28T12:18:45.962Z,972.32
2022-08-28T12:19:51.219Z,972.36
2022-08-28T12:20:46.926Z,972.30
2022-08-28T12:21:45.904Z,972.37
2022-08-28T12:22:45.890Z,972.38
2022-08-28T12:23:45.866Z,972.42
2022-08-28T12:24:45.847Z,972.37
2022-08-28T12:25:45.830Z,972.40
2022-08-28T12:26:45.808Z,972.40
2022-08-28T12:27:45.788Z,972.38
2022-08-28T12:28:45.778Z,972.36